Time;durP1;ratioP1;P1;durP2;ratioP2;P2;SDS_P1;SDS_P2;PMS_P1;PMS_P2;Temp;Humidity;BMP_temperature;BMP_pressure;BME280_temperature;BME280_humidity;BME280_pressure;Samples;Min_cycle;Max_cycle;Signal;HPM_P1;HPM_P2
2022/07/09 00:01:02;;;;;;;13.40;8.50;;;19.10;99.90;;;;;;5019741;28;93181;-69
2022/07/09 00:03:28;;;;;;;12.15;7.40;;;19.20;99.90;;;;;;5036782;28;89817;-69
2022/07/09 00:05:56;;;;;;;13.15;8.07;;;19.10;99.90;;;;;;5038118;27;88210;-69
2022/07/09 00:08:23;;;;;;;13.02;7.85;;;19.20;99.90;;;;;;5019323;28;91330;-69
2022/07/09 00:10:50;;;;;;;15.68;9.02;;;19.20;99.90;;;;;;5036672;28;89689;-69
2022/07/09 00:13:17;;;;;;;12.90;9.23;;;19.10;99.90;;;;;;5037439;27;87909;-69
2022/07/09 00:15:44;;;;;;;12.35;8.23;;;19.10;99.90;;;;;;5036090;28;90949;-69
2022/07/09 00:18:11;;;;;;;11.32;9.60;;;19.10;99.90;;;;;;5037112;27;89263;-69
2022/07/09 00:20:38;;;;;;;13.15;8.55;;;19.10;99.90;;;;;;5035878;28;88805;-69
2022/07/09 00:23:05;;;;;;;9.60;8.63;;;19.10;99.90;;;;;;5035866;28;89337;-69
2022/07/09 00:25:32;;;;;;;12.20;8.48;;;19.10;99.90;;;;;;5037173;27;89043;-69
2022/07/09 00:27:59;;;;;;;13.55;8.38;;;19.10;99.90;;;;;;5019475;28;91240;-69
2022/07/09 00:30:26;;;;;;;11.60;8.68;;;19.10;99.90;;;;;;5036841;27;93656;-69
2022/07/09 00:32:53;;;;;;;13.48;8.80;;;19.10;99.90;;;;;;5019126;28;89673;-69
2022/07/09 00:35:20;;;;;;;11.73;8.63;;;19.10;99.90;;;;;;5036355;28;88227;-69
2022/07/09 00:37:47;;;;;;;12.77;8.77;;;19.00;99.90;;;;;;5037286;27;88791;-69
2022/07/09 00:40:14;;;;;;;12.70;9.68;;;19.00;99.90;;;;;;5036814;27;88524;-69
2022/07/09 00:42:41;;;;;;;15.02;8.30;;;19.00;99.90;;;;;;5036810;27;88828;-69
2022/07/09 00:45:08;;;;;;;13.25;8.85;;;19.00;99.90;;;;;;5036767;27;88625;-69
2022/07/09 00:47:35;;;;;;;14.15;10.65;;;19.00;99.90;;;;;;5040171;27;88278;-69
2022/07/09 00:50:03;;;;;;;14.05;9.75;;;19.00;99.90;;;;;;5038637;28;89450;-69
2022/07/09 00:52:31;;;;;;;12.02;8.23;;;19.00;99.90;;;;;;5040078;27;89060;-69
2022/07/09 00:55:00;;;;;;;15.45;8.82;;;19.00;99.90;;;;;;5039132;28;88420;-69
2022/07/09 00:57:29;;;;;;;14.27;8.30;;;19.00;99.90;;;;;;5038952;28;88866;-69
2022/07/09 00:59:57;;;;;;;13.02;8.75;;;18.90;99.90;;;;;;5022173;28;91025;-69
2022/07/09 01:02:25;;;;;;;14.55;8.52;;;19.00;99.90;;;;;;5040184;27;88538;-69
2022/07/09 01:04:52;;;;;;;13.13;8.00;;;19.00;99.90;;;;;;5040317;27;88376;-69
2022/07/09 01:07:19;;;;;;;12.45;8.75;;;19.00;99.90;;;;;;5039627;27;89599;-69
2022/07/09 01:09:46;;;;;;;12.45;7.35;;;19.00;99.90;;;;;;5022268;28;89247;-69
2022/07/09 01:12:13;;;;;;;16.52;8.73;;;19.00;99.90;;;;;;5039984;27;88020;-69
2022/07/09 01:14:40;;;;;;;8.80;7.68;;;19.00;99.90;;;;;;5038836;28;88030;-69
2022/07/09 01:17:07;;;;;;;16.10;8.10;;;19.00;99.90;;;;;;5038830;28;88576;-69
2022/07/09 01:19:35;;;;;;;12.52;7.28;;;19.00;99.90;;;;;;5040090;27;89113;-69
2022/07/09 01:22:02;;;;;;;11.30;7.60;;;19.00;99.90;;;;;;5038713;28;88084;-69
2022/07/09 01:24:33;;;;;;;11.77;7.00;;;19.00;99.90;;;;;;5040517;28;88298;-69
2022/07/09 01:27:01;;;;;;;13.35;7.25;;;19.00;99.90;;;;;;5039956;27;88016;-69
2022/07/09 01:29:27;;;;;;;16.48;7.82;;;19.00;99.90;;;;;;5039881;27;88636;-69
2022/07/09 01:31:54;;;;;;;11.55;8.38;;;19.00;99.90;;;;;;5039781;27;88827;-69
2022/07/09 01:34:21;;;;;;;11.23;8.20;;;19.00;99.90;;;;;;5039625;27;88495;-68
2022/07/09 01:36:48;;;;;;;9.52;6.75;;;19.00;99.90;;;;;;5039848;27;88127;-69
2022/07/09 01:39:15;;;;;;;12.40;7.25;;;19.00;99.90;;;;;;5021681;28;89393;-69
2022/07/09 01:41:42;;;;;;;9.32;6.90;;;19.00;99.90;;;;;;5038221;28;89404;-68
2022/07/09 01:44:09;;;;;;;15.38;7.90;;;19.00;99.90;;;;;;5039563;27;89192;-69
2022/07/09 01:46:36;;;;;;;9.75;6.28;;;19.00;99.90;;;;;;5039399;27;88777;-69
2022/07/09 01:49:04;;;;;;;11.02;6.60;;;19.00;99.90;;;;;;5038878;28;88697;-69
2022/07/09 01:51:34;;;;;;;10.40;8.32;;;18.90;99.90;;;;;;5039508;27;88509;-69
2022/07/09 01:54:02;;;;;;;14.60;7.93;;;18.90;99.90;;;;;;5039823;27;88342;-69
2022/07/09 01:56:29;;;;;;;10.25;7.38;;;18.90;99.90;;;;;;5038625;27;89442;-69
2022/07/09 01:58:56;;;;;;;12.88;6.70;;;18.80;99.90;;;;;;5037905;28;92539;-69
2022/07/09 02:01:23;;;;;;;9.63;6.53;;;18.80;99.90;;;;;;5038705;27;88147;-69
2022/07/09 02:03:50;;;;;;;10.77;7.70;;;18.80;99.90;;;;;;5039377;27;88066;-69
2022/07/09 02:06:17;;;;;;;11.30;6.90;;;18.80;99.90;;;;;;5037501;27;91701;-69
2022/07/09 02:08:44;;;;;;;11.07;6.57;;;18.80;99.90;;;;;;5039304;27;88574;-69
2022/07/09 02:11:11;;;;;;;15.55;8.45;;;18.80;99.90;;;;;;5021054;28;89306;-68
2022/07/09 02:13:37;;;;;;;12.15;6.60;;;18.80;99.90;;;;;;5037942;27;90998;-69
2022/07/09 02:16:05;;;;;;;11.85;6.82;;;18.80;99.90;;;;;;5039261;27;88877;-69
2022/07/09 02:18:32;;;;;;;10.75;6.55;;;18.80;99.90;;;;;;5038883;27;88462;-69
2022/07/09 02:20:59;;;;;;;15.32;8.15;;;18.80;99.90;;;;;;5037500;28;88741;-69
2022/07/09 02:23:26;;;;;;;10.45;6.28;;;18.80;99.90;;;;;;5037244;28;88378;-69
2022/07/09 02:25:53;;;;;;;11.38;8.10;;;18.80;99.90;;;;;;5037825;28;88855;-69
2022/07/09 02:28:20;;;;;;;9.70;6.65;;;18.80;99.90;;;;;;5038783;27;88815;-69
2022/07/09 02:30:47;;;;;;;16.20;8.50;;;18.80;99.90;;;;;;5037861;27;88120;-69
2022/07/09 02:33:14;;;;;;;15.50;8.77;;;18.80;99.90;;;;;;5039115;27;88104;-69
2022/07/09 02:35:42;;;;;;;12.98;7.03;;;18.80;99.90;;;;;;5037106;28;91370;-69
2022/07/09 02:38:09;;;;;;;15.70;8.60;;;18.70;99.90;;;;;;5039123;28;88707;-69
2022/07/09 02:40:36;;;;;;;13.52;7.75;;;18.70;99.90;;;;;;5037307;28;88017;-69
2022/07/09 02:43:03;;;;;;;16.38;8.35;;;18.70;99.90;;;;;;5020954;28;88318;-69
2022/07/09 02:45:30;;;;;;;18.75;8.00;;;18.70;99.90;;;;;;5038043;27;88814;-69
2022/07/09 02:47:57;;;;;;;13.07;8.60;;;18.70;99.90;;;;;;5038432;27;99356;-69
2022/07/09 02:50:24;;;;;;;15.27;9.07;;;18.70;99.90;;;;;;5036830;28;89356;-69
2022/07/09 02:52:51;;;;;;;11.63;8.07;;;18.70;99.90;;;;;;5038426;27;88406;-68
2022/07/09 02:55:18;;;;;;;16.95;7.85;;;18.70;99.90;;;;;;5020405;28;91226;-69
2022/07/09 02:57:45;;;;;;;15.80;8.55;;;18.60;99.90;;;;;;5038456;28;88685;-69
2022/07/09 03:00:12;;;;;;;18.88;9.30;;;18.70;99.90;;;;;;5020216;28;88103;-69
2022/07/09 03:02:39;;;;;;;17.08;9.35;;;18.70;99.90;;;;;;5038740;27;88292;-69
2022/07/09 03:05:07;;;;;;;14.68;8.60;;;18.70;99.90;;;;;;5038408;27;87909;-69
2022/07/09 03:07:34;;;;;;;13.18;9.95;;;18.70;99.90;;;;;;5038141;27;89541;-69
2022/07/09 03:10:00;;;;;;;17.88;10.30;;;18.70;99.90;;;;;;5018680;28;101934;-69
2022/07/09 03:12:27;;;;;;;15.43;8.85;;;18.70;99.90;;;;;;5036102;28;88539;-69
2022/07/09 03:14:54;;;;;;;16.75;9.13;;;18.70;99.90;;;;;;5038394;27;88178;-69
2022/07/09 03:17:21;;;;;;;13.05;10.32;;;18.70;99.90;;;;;;5038456;27;88537;-69
2022/07/09 03:19:48;;;;;;;13.70;9.13;;;18.60;99.90;;;;;;5035839;28;89295;-69
2022/07/09 03:22:15;;;;;;;13.75;9.48;;;18.60;99.90;;;;;;5036633;28;89490;-69
2022/07/09 03:24:42;;;;;;;10.70;9.50;;;18.60;99.90;;;;;;5036618;28;93621;-69
2022/07/09 03:27:09;;;;;;;17.15;8.98;;;18.60;99.90;;;;;;5037357;28;89724;-69
2022/07/09 03:29:36;;;;;;;17.90;9.23;;;18.60;99.90;;;;;;5038181;27;87989;-68
2022/07/09 03:32:03;;;;;;;17.88;9.50;;;18.60;99.90;;;;;;5037153;28;88279;-69
2022/07/09 03:34:30;;;;;;;16.63;9.75;;;18.60;99.90;;;;;;5035936;28;92656;-69
2022/07/09 03:36:57;;;;;;;13.93;10.48;;;18.60;99.90;;;;;;5036891;28;92007;-69
2022/07/09 03:39:25;;;;;;;12.10;8.60;;;18.60;99.90;;;;;;5036026;28;89509;-69
2022/07/09 03:41:52;;;;;;;14.30;8.43;;;18.60;99.90;;;;;;5037880;27;88411;-69
2022/07/09 03:44:19;;;;;;;13.32;8.27;;;18.50;99.90;;;;;;5037614;28;104300;-69
2022/07/09 03:46:46;;;;;;;15.20;10.30;;;18.50;99.90;;;;;;5036579;28;88681;-69
2022/07/09 03:49:13;;;;;;;11.77;9.10;;;18.50;99.90;;;;;;5036019;28;88486;-69
2022/07/09 03:51:40;;;;;;;16.00;8.88;;;18.50;99.90;;;;;;5038082;27;88001;-69
2022/07/09 03:54:27;;;;;;;10.82;8.00;;;18.50;99.90;;;;;;5036510;28;90329;-69
2022/07/09 03:56:54;;;;;;;14.60;9.45;;;18.50;99.90;;;;;;5019589;28;91177;-68
2022/07/09 03:59:21;;;;;;;13.23;9.95;;;18.50;99.90;;;;;;5037505;27;88692;-69
2022/07/09 04:01:48;;;;;;;15.07;9.40;;;18.50;99.90;;;;;;5037043;28;88354;-69
2022/07/09 04:04:14;;;;;;;14.55;8.27;;;18.60;99.90;;;;;;5037900;27;88806;-69
2022/07/09 04:06:41;;;;;;;13.98;9.90;;;18.60;99.90;;;;;;5037823;27;88663;-69
2022/07/09 04:09:08;;;;;;;16.52;9.50;;;18.60;99.90;;;;;;5036446;28;87999;-69
2022/07/09 04:11:35;;;;;;;11.65;7.50;;;18.60;99.90;;;;;;5037480;27;88487;-69
2022/07/09 04:14:02;;;;;;;12.00;7.45;;;18.70;99.90;;;;;;5019616;28;91322;-69
2022/07/09 04:16:29;;;;;;;7.97;6.63;;;18.70;99.90;;;;;;5038266;27;88688;-69
2022/07/09 04:18:57;;;;;;;13.43;8.43;;;18.70;99.90;;;;;;5037573;27;88057;-69
2022/07/09 04:21:24;;;;;;;14.20;7.85;;;18.70;99.90;;;;;;5037430;28;98916;-69
2022/07/09 04:23:52;;;;;;;8.95;6.75;;;18.70;99.90;;;;;;5039184;28;92037;-69
2022/07/09 04:26:19;;;;;;;10.48;7.53;;;18.80;99.90;;;;;;5041180;27;89157;-69
2022/07/09 04:28:46;;;;;;;10.38;6.65;;;18.80;99.90;;;;;;5040951;27;87992;-69
2022/07/09 04:31:15;;;;;;;10.50;6.50;;;18.90;99.90;;;;;;5039833;28;88268;-68
2022/07/09 04:33:43;;;;;;;11.10;7.45;;;18.90;99.90;;;;;;5040641;27;89040;-69
2022/07/09 04:36:10;;;;;;;13.35;7.07;;;19.00;99.90;;;;;;5039913;28;88638;-69
2022/07/09 04:38:37;;;;;;;11.32;8.32;;;19.00;99.90;;;;;;5039901;28;88266;-69
2022/07/09 04:41:05;;;;;;;12.13;7.72;;;19.00;99.90;;;;;;5040207;28;88324;-69
2022/07/09 04:43:32;;;;;;;12.38;7.60;;;19.10;99.90;;;;;;5040926;27;87920;-69
2022/07/09 04:46:00;;;;;;;12.93;8.27;;;19.10;99.90;;;;;;5040632;27;88694;-69
2022/07/09 04:48:27;;;;;;;10.27;7.60;;;19.10;99.90;;;;;;5039464;28;88796;-69
2022/07/09 04:50:54;;;;;;;11.52;7.30;;;19.20;99.90;;;;;;5040660;28;88615;-68
2022/07/09 04:53:21;;;;;;;11.55;8.65;;;19.20;99.90;;;;;;5039330;28;89714;-68
2022/07/09 04:55:48;;;;;;;13.40;6.65;;;19.20;99.90;;;;;;5040133;27;88658;-69
2022/07/09 04:58:15;;;;;;;11.70;7.65;;;19.30;99.90;;;;;;5039645;27;88770;-69
2022/07/09 05:00:42;;;;;;;12.75;6.88;;;19.30;99.90;;;;;;5038215;28;89500;-69
2022/07/09 05:03:09;;;;;;;9.00;8.10;;;19.40;99.90;;;;;;5040635;27;88621;-68
2022/07/09 05:05:36;;;;;;;11.35;7.47;;;19.50;99.90;;;;;;5040738;27;88552;-69
2022/07/09 05:08:11;;;;;;;10.80;7.75;;;19.50;99.90;;;;;;5040791;27;87911;-69
2022/07/09 05:10:38;;;;;;;12.32;7.22;;;19.60;99.90;;;;;;5022180;28;91045;-69
2022/07/09 05:13:05;;;;;;;9.52;6.57;;;19.70;99.90;;;;;;5038396;27;92006;-69
2022/07/09 05:15:32;;;;;;;9.63;6.18;;;19.70;99.90;;;;;;5040478;27;91528;-69
2022/07/09 05:17:59;;;;;;;9.00;6.30;;;19.80;99.90;;;;;;5040257;27;87911;-68
2022/07/09 05:20:27;;;;;;;9.30;6.82;;;19.80;99.90;;;;;;5038859;28;91134;-69
2022/07/09 05:22:54;;;;;;;8.13;6.18;;;19.80;99.90;;;;;;5038562;28;88564;-69
2022/07/09 05:25:21;;;;;;;9.60;7.18;;;19.90;99.90;;;;;;5040250;27;92850;-69
2022/07/09 05:27:48;;;;;;;10.40;7.30;;;19.90;99.90;;;;;;5038549;27;89379;-69
2022/07/09 05:30:15;;;;;;;9.32;6.72;;;20.00;99.90;;;;;;5040526;27;88359;-68
2022/07/09 05:32:46;;;;;;;12.25;7.20;;;20.10;99.80;;;;;;5039699;27;88689;-68
2022/07/09 05:35:13;;;;;;;9.68;5.40;;;20.10;99.70;;;;;;5039942;27;87958;-69
2022/07/09 05:37:43;;;;;;;11.00;7.45;;;20.20;99.60;;;;;;5021341;28;94048;-68
2022/07/09 05:40:11;;;;;;;8.40;7.53;;;20.30;99.50;;;;;;5038989;28;88243;-69
2022/07/09 05:42:39;;;;;;;8.15;6.18;;;20.40;99.40;;;;;;5039735;27;88793;-69
2022/07/09 05:45:07;;;;;;;7.57;5.20;;;20.50;99.30;;;;;;5039818;27;88703;-69
2022/07/09 05:47:34;;;;;;;9.23;6.97;;;20.70;99.10;;;;;;5039920;27;87974;-69
2022/07/09 05:50:01;;;;;;;7.57;5.80;;;20.70;98.80;;;;;;5039383;27;88423;-69
2022/07/09 05:52:28;;;;;;;6.78;5.20;;;20.90;98.70;;;;;;5038663;28;88918;-69
2022/07/09 05:54:55;;;;;;;9.18;6.10;;;20.90;98.60;;;;;;5040195;27;88612;-69
2022/07/09 05:57:22;;;;;;;9.73;6.13;;;21.00;98.40;;;;;;5038539;28;87976;-69
2022/07/09 05:59:49;;;;;;;6.35;5.63;;;21.00;98.30;;;;;;5039616;27;88382;-69
2022/07/09 06:02:16;;;;;;;9.57;4.93;;;21.10;98.20;;;;;;5037537;28;92106;-69
2022/07/09 06:04:43;;;;;;;6.72;4.97;;;21.10;98.00;;;;;;5039483;27;89244;-69
2022/07/09 06:07:10;;;;;;;7.22;6.00;;;21.20;98.00;;;;;;5039564;27;87947;-69
2022/07/09 06:09:37;;;;;;;9.68;5.90;;;21.20;98.00;;;;;;5021419;28;91202;-69
2022/07/09 06:12:04;;;;;;;7.72;4.60;;;21.30;97.80;;;;;;5038207;28;88048;-69
2022/07/09 06:14:32;;;;;;;11.50;5.90;;;21.30;97.70;;;;;;5021414;28;91121;-69
2022/07/09 06:17:05;;;;;;;7.30;5.00;;;21.40;97.50;;;;;;5037749;28;88476;-69
2022/07/09 06:19:36;;;;;;;6.78;5.93;;;21.40;97.30;;;;;;5040178;27;88370;-69
2022/07/09 06:22:03;;;;;;;6.22;4.25;;;21.50;97.30;;;;;;5037746;28;89087;-69
2022/07/09 06:24:30;;;;;;;8.80;5.85;;;21.40;97.30;;;;;;5039320;27;88600;-69
2022/07/09 06:26:57;;;;;;;7.07;5.50;;;21.40;97.30;;;;;;5038807;27;88760;-69
2022/07/09 06:29:24;;;;;;;5.95;4.70;;;21.50;97.40;;;;;;5039288;27;88054;-69
2022/07/09 06:31:51;;;;;;;6.07;4.05;;;21.50;97.30;;;;;;5037875;28;91489;-69
2022/07/09 06:34:18;;;;;;;5.95;5.25;;;21.50;97.20;;;;;;5037926;28;88635;-69
2022/07/09 06:36:45;;;;;;;5.75;5.15;;;21.50;97.20;;;;;;5039264;27;88030;-69
2022/07/09 06:42:05;;;;;;;5.80;4.88;;;21.50;97.00;;;;;;5037851;27;88860;-69
2022/07/09 06:44:36;;;;;;;7.05;5.13;;;21.60;97.00;;;;;;5038475;27;88734;-69
2022/07/09 06:47:04;;;;;;;8.90;4.82;;;21.60;97.00;;;;;;5037816;28;88036;-69
2022/07/09 06:49:31;;;;;;;5.50;4.38;;;21.70;97.00;;;;;;5038857;27;88059;-69
2022/07/09 06:51:59;;;;;;;8.02;5.70;;;21.70;96.90;;;;;;5038090;27;93863;-69
2022/07/09 06:54:26;;;;;;;6.47;4.72;;;21.80;96.80;;;;;;5038882;27;89279;-69
2022/07/09 06:56:53;;;;;;;5.85;3.80;;;21.90;96.60;;;;;;5038701;27;87990;-69
2022/07/09 06:59:22;;;;;;;7.38;5.72;;;22.00;96.60;;;;;;5038570;27;88391;-69
2022/07/09 07:01:49;;;;;;;6.80;4.93;;;22.10;96.50;;;;;;5036642;28;91371;-69
2022/07/09 07:04:16;;;;;;;6.55;3.78;;;22.20;96.40;;;;;;5038453;27;88562;-69
2022/07/09 07:06:46;;;;;;;9.52;5.03;;;22.20;96.10;;;;;;5037147;28;88420;-69
2022/07/09 07:09:13;;;;;;;6.38;5.28;;;22.20;96.00;;;;;;5037216;28;89593;-69
2022/07/09 07:11:40;;;;;;;6.90;5.30;;;22.20;96.00;;;;;;5037445;28;88010;-69
2022/07/09 07:14:07;;;;;;;6.25;4.25;;;22.20;96.10;;;;;;5038414;27;88623;-69
2022/07/09 07:16:34;;;;;;;5.70;3.70;;;22.20;96.10;;;;;;5038137;27;88796;-69
2022/07/09 07:19:01;;;;;;;7.53;5.43;;;22.20;96.20;;;;;;5038282;27;88511;-69
2022/07/09 07:21:28;;;;;;;8.40;4.72;;;22.20;96.20;;;;;;5037204;28;87947;-69
2022/07/09 07:23:55;;;;;;;5.88;4.75;;;22.30;96.00;;;;;;5038088;27;88755;-69
2022/07/09 07:26:22;;;;;;;6.28;3.80;;;22.30;96.00;;;;;;5036948;27;87947;-69
2022/07/09 07:28:49;;;;;;;7.53;5.85;;;22.30;96.00;;;;;;5020492;28;88355;-69
2022/07/09 07:31:16;;;;;;;5.88;4.53;;;22.20;96.00;;;;;;5038201;27;88764;-69
2022/07/09 07:33:43;;;;;;;7.35;4.53;;;22.20;95.90;;;;;;5004076;28;90179;-69
2022/07/09 07:36:10;;;;;;;5.95;4.07;;;22.30;95.90;;;;;;5037008;28;87960;-69
2022/07/09 07:38:37;;;;;;;5.28;4.78;;;22.30;95.90;;;;;;5038210;27;88253;-69
2022/07/09 07:41:04;;;;;;;6.20;4.53;;;22.40;95.70;;;;;;5036135;28;89562;-69
2022/07/09 07:43:31;;;;;;;5.30;3.65;;;22.60;95.50;;;;;;5036521;28;91947;-69
2022/07/09 07:45:58;;;;;;;4.32;3.20;;;22.70;95.30;;;;;;5037802;27;95334;-69
2022/07/09 07:48:30;;;;;;;5.45;4.85;;;22.80;95.10;;;;;;5038245;27;88362;-69
2022/07/09 07:50:58;;;;;;;5.88;3.83;;;22.80;95.00;;;;;;5036469;28;91381;-69
2022/07/09 07:53:25;;;;;;;4.50;3.35;;;23.00;95.00;;;;;;5019708;28;89658;-69
2022/07/09 07:55:52;;;;;;;4.72;3.95;;;23.20;94.70;;;;;;5038076;27;88537;-69
2022/07/09 07:58:19;;;;;;;4.60;3.67;;;23.60;94.20;;;;;;5038229;27;87772;-69
2022/07/09 08:00:46;;;;;;;4.32;3.38;;;24.00;93.80;;;;;;5035976;28;89834;-69
2022/07/09 08:03:13;;;;;;;5.32;3.30;;;24.50;93.20;;;;;;5036138;28;91253;-69
2022/07/09 08:05:40;;;;;;;3.85;2.47;;;24.80;92.30;;;;;;5037694;27;89489;-69
2022/07/09 08:08:07;;;;;;;4.55;3.53;;;25.00;92.10;;;;;;5037431;27;88389;-69
2022/07/09 08:10:34;;;;;;;4.72;3.20;;;25.10;91.30;;;;;;5036629;27;88157;-69
2022/07/09 08:13:02;;;;;;;4.97;2.47;;;25.00;91.10;;;;;;5035767;28;97319;-69
2022/07/09 08:15:29;;;;;;;6.15;3.92;;;25.00;91.10;;;;;;5036439;28;87929;-69
2022/07/09 08:17:56;;;;;;;3.45;2.72;;;24.90;91.20;;;;;;5036152;28;90829;-69
2022/07/09 08:20:23;;;;;;;3.90;2.83;;;25.00;91.10;;;;;;5035831;28;91361;-69
2022/07/09 08:22:50;;;;;;;3.95;2.38;;;25.10;91.00;;;;;;5037821;27;88647;-69
2022/07/09 08:25:17;;;;;;;5.30;2.60;;;25.30;90.70;;;;;;5037558;27;88005;-69
2022/07/09 08:27:44;;;;;;;6.05;3.22;;;25.30;90.30;;;;;;5036415;28;88053;-69
2022/07/09 08:30:11;;;;;;;5.13;2.67;;;25.20;90.50;;;;;;5035381;28;92196;-69
2022/07/09 08:32:39;;;;;;;2.45;2.25;;;25.20;90.60;;;;;;5036040;28;92048;-69
2022/07/09 08:35:07;;;;;;;3.65;2.40;;;25.30;90.50;;;;;;5035958;28;88171;-69
2022/07/09 08:37:34;;;;;;;5.93;2.53;;;25.50;90.60;;;;;;5037411;27;88764;-69
2022/07/09 08:40:06;;;;;;;3.60;2.20;;;25.70;88.70;;;;;;5019790;28;91451;-69
2022/07/09 08:42:33;;;;;;;3.92;3.33;;;26.00;88.60;;;;;;5035855;28;88612;-69
2022/07/09 08:45:01;;;;;;;3.22;1.67;;;26.50;86.80;;;;;;5037453;27;88532;-69
2022/07/09 08:47:29;;;;;;;4.55;1.67;;;27.30;85.80;;;;;;5019491;28;89440;-69
2022/07/09 08:49:58;;;;;;;2.78;1.85;;;28.10;83.80;;;;;;5035806;28;91254;-69
2022/07/09 08:52:26;;;;;;;3.13;2.47;;;28.40;82.40;;;;;;5035645;28;88635;-69
2022/07/09 08:54:53;;;;;;;3.55;2.50;;;28.50;80.90;;;;;;5035761;28;88718;-70
2022/07/09 08:57:24;;;;;;;3.50;2.00;;;28.50;80.00;;;;;;5035266;28;96487;-69
2022/07/09 08:59:51;;;;;;;1.73;1.42;;;28.40;77.70;;;;;;5036862;27;87933;-70
2022/07/09 09:02:20;;;;;;;3.42;2.53;;;28.30;77.60;;;;;;5034445;28;96010;-69
2022/07/09 09:04:48;;;;;;;3.08;2.08;;;28.10;77.20;;;;;;5037107;27;87992;-69
2022/07/09 09:07:16;;;;;;;4.35;3.55;;;28.10;78.10;;;;;;5036641;27;90982;-70
2022/07/09 09:09:43;;;;;;;2.40;2.13;;;27.90;77.80;;;;;;5022251;28;91164;-70
2022/07/09 09:12:11;;;;;;;2.50;1.35;;;27.90;78.50;;;;;;5039664;28;89165;-69
2022/07/09 09:14:39;;;;;;;2.67;1.83;;;28.30;77.60;;;;;;5038748;28;88100;-70
2022/07/09 09:17:09;;;;;;;3.30;1.80;;;28.70;76.00;;;;;;5040371;27;88296;-69
2022/07/09 09:19:36;;;;;;;3.17;1.73;;;28.90;74.90;;;;;;5038640;28;89565;-70
2022/07/09 09:22:03;;;;;;;3.20;1.67;;;28.70;73.30;;;;;;5040417;27;89197;-69
2022/07/09 09:24:30;;;;;;;3.40;2.25;;;28.60;73.10;;;;;;5040134;27;88429;-69
2022/07/09 09:27:01;;;;;;;3.30;2.10;;;28.40;71.80;;;;;;5040082;27;88355;-69
2022/07/09 09:29:28;;;;;;;3.13;1.52;;;28.10;71.50;;;;;;5040012;27;88883;-70
2022/07/09 09:31:56;;;;;;;3.40;1.83;;;27.70;72.90;;;;;;5040136;27;88040;-69
2022/07/09 09:34:24;;;;;;;2.72;2.22;;;27.50;74.10;;;;;;5038693;27;88014;-70
2022/07/09 09:36:54;;;;;;;2.08;1.40;;;27.40;74.90;;;;;;5040434;27;88312;-69
2022/07/09 09:39:43;;;;;;;3.63;2.08;;;27.40;74.90;;;;;;5038141;27;91478;-69
2022/07/09 09:42:14;;;;;;;3.10;1.70;;;27.20;73.70;;;;;;5040280;27;88519;-69
2022/07/09 09:44:44;;;;;;;5.60;2.55;;;26.70;73.30;;;;;;5037725;28;89205;-69
2022/07/09 09:47:11;;;;;;;3.85;1.40;;;26.80;74.60;;;;;;5039728;27;88342;-70
2022/07/09 09:49:41;;;;;;;1.80;1.20;;;26.70;73.80;;;;;;5021604;28;91556;-69
2022/07/09 09:52:11;;;;;;;3.50;1.60;;;26.70;74.00;;;;;;5039877;27;88724;-69
2022/07/09 09:54:42;;;;;;;3.08;1.63;;;26.40;75.70;;;;;;5039475;27;87987;-69
2022/07/09 09:57:13;;;;;;;5.07;1.90;;;26.40;76.60;;;;;;5038251;28;89504;-70
2022/07/09 09:59:41;;;;;;;5.53;1.95;;;26.40;77.30;;;;;;5039664;28;88731;-70
2022/07/09 10:02:10;;;;;;;4.18;2.58;;;26.30;77.30;;;;;;5055021;27;88592;-69
2022/07/09 10:04:39;;;;;;;5.05;1.73;;;26.20;77.00;;;;;;5039497;27;88457;-69
2022/07/09 10:07:07;;;;;;;4.30;2.03;;;26.30;77.30;;;;;;5039268;27;95396;-69
2022/07/09 10:09:34;;;;;;;5.63;3.35;;;26.00;76.00;;;;;;5037457;28;91720;-69
2022/07/09 10:12:01;;;;;;;6.13;2.78;;;25.80;76.60;;;;;;5039611;27;89400;-69
2022/07/09 10:14:28;;;;;;;4.70;1.90;;;25.50;77.50;;;;;;5039498;27;88059;-69
2022/07/09 10:16:55;;;;;;;5.22;2.03;;;25.30;78.60;;;;;;5037811;28;91211;-69
2022/07/09 10:19:30;;;;;;;4.40;3.42;;;25.10;78.10;;;;;;5039252;27;87968;-69
2022/07/09 10:21:58;;;;;;;3.80;1.73;;;25.10;78.80;;;;;;5039643;27;88065;-69
2022/07/09 10:24:32;;;;;;;6.43;2.63;;;25.20;79.30;;;;;;5038893;27;88034;-69
2022/07/09 10:27:20;;;;;;;3.65;2.15;;;25.40;79.40;;;;;;5039956;27;88330;-69
2022/07/09 10:30:02;;;;;;;4.35;2.17;;;25.10;79.10;;;;;;5037622;28;89858;-69
2022/07/09 10:32:32;;;;;;;3.95;1.98;;;25.00;78.30;;;;;;5038626;27;88675;-69
2022/07/09 10:35:01;;;;;;;3.83;2.10;;;24.90;78.40;;;;;;5038933;27;88667;-69
2022/07/09 10:37:42;;;;;;;3.15;2.85;;;24.80;78.80;;;;;;5038673;27;88497;-69
2022/07/09 10:40:10;;;;;;;9.27;2.72;;;24.80;78.30;;;;;;5037526;28;92236;-69
2022/07/09 10:42:38;;;;;;;6.47;2.00;;;24.70;78.90;;;;;;5038714;27;88679;-70
2022/07/09 10:45:22;;;;;;;3.55;2.63;;;24.70;79.50;;;;;;5038948;27;88018;-69
2022/07/09 10:47:54;;;;;;;4.13;1.70;;;25.00;78.30;;;;;;5037325;28;90921;-69
2022/07/09 10:50:22;;;;;;;3.10;2.47;;;25.00;78.10;;;;;;5020256;28;91467;-69
2022/07/09 10:52:50;;;;;;;2.30;2.10;;;25.20;76.60;;;;;;5039106;27;88676;-69
2022/07/09 10:55:24;;;;;;;3.03;1.52;;;25.40;76.00;;;;;;5038787;27;88048;-69
2022/07/09 10:57:52;;;;;;;2.28;1.85;;;25.40;75.20;;;;;;5038813;27;88304;-69
2022/07/09 11:00:25;;;;;;;3.17;2.72;;;25.40;74.70;;;;;;5036705;28;92190;-69
2022/07/09 11:03:02;;;;;;;4.47;2.28;;;25.30;74.10;;;;;;5020298;28;88096;-69
2022/07/09 11:05:34;;;;;;;5.32;2.47;;;25.40;74.90;;;;;;5037055;28;88044;-69
2022/07/09 11:08:06;;;;;;;3.53;1.60;;;25.60;75.70;;;;;;5038631;27;88329;-69
2022/07/09 11:10:39;;;;;;;5.97;2.43;;;25.70;74.40;;;;;;5036923;28;91275;-69
2022/07/09 11:13:08;;;;;;;7.28;2.50;;;25.70;75.90;;;;;;5038610;27;88639;-69
2022/07/09 11:15:38;;;;;;;7.07;2.83;;;25.50;75.50;;;;;;5036735;28;89565;-69
2022/07/09 11:18:10;;;;;;;5.35;3.25;;;25.40;76.50;;;;;;5038601;27;88179;-69
2022/07/09 11:20:43;;;;;;;5.03;2.30;;;25.50;78.10;;;;;;5038230;27;88911;-69
2022/07/09 11:23:15;;;;;;;4.88;1.90;;;25.50;78.80;;;;;;5038361;27;89394;-69
2022/07/09 11:25:43;;;;;;;3.67;3.22;;;25.60;78.90;;;;;;5037704;27;89106;-69
2022/07/09 11:28:20;;;;;;;5.82;2.80;;;25.70;78.70;;;;;;5038038;27;88408;-69
2022/07/09 11:30:58;;;;;;;4.15;2.10;;;25.70;79.10;;;;;;5036116;28;89084;-69
2022/07/09 11:33:26;;;;;;;8.38;3.22;;;25.50;80.00;;;;;;5038209;27;88054;-69
2022/07/09 11:35:53;;;;;;;7.40;2.33;;;25.30;79.80;;;;;;5036061;28;98785;-69
2022/07/09 11:38:19;;;;;;;5.43;2.38;;;25.20;80.10;;;;;;5036416;28;91033;-69
2022/07/09 11:40:46;;;;;;;6.20;2.10;;;25.20;80.80;;;;;;5037617;27;88707;-69
2022/07/09 11:43:15;;;;;;;8.23;3.30;;;25.10;80.10;;;;;;5036976;28;88776;-69
2022/07/09 11:45:53;;;;;;;8.15;2.25;;;25.00;80.30;;;;;;5037470;27;87923;-69
2022/07/09 11:48:20;;;;;;;6.65;2.30;;;25.00;80.90;;;;;;5037791;27;90113;-69
2022/07/09 11:50:46;;;;;;;7.38;3.17;;;24.80;81.20;;;;;;5037045;27;88996;-69
2022/07/09 11:53:26;;;;;;;7.53;3.28;;;24.90;81.40;;;;;;5036363;28;89221;-69
2022/07/09 11:56:06;;;;;;;5.45;2.38;;;25.10;80.70;;;;;;5037686;27;88115;-69
2022/07/09 11:58:33;;;;;;;5.18;2.90;;;25.20;80.50;;;;;;5037813;28;88408;-69
2022/07/09 12:01:01;;;;;;;4.90;2.33;;;25.10;80.00;;;;;;5035909;28;88059;-69
2022/07/09 12:03:32;;;;;;;5.18;2.05;;;25.10;79.10;;;;;;5036471;28;88079;-69
2022/07/09 12:05:59;;;;;;;6.65;2.30;;;25.10;77.90;;;;;;5037548;28;88447;-69
2022/07/09 12:08:30;;;;;;;5.72;2.00;;;25.20;78.10;;;;;;5038056;27;89313;-69
2022/07/09 12:10:58;;;;;;;7.68;2.75;;;25.30;78.10;;;;;;5035773;28;91534;-69
2022/07/09 12:13:26;;;;;;;4.35;1.90;;;25.30;77.50;;;;;;5037557;27;88602;-69
2022/07/09 12:15:52;;;;;;;4.90;2.35;;;25.30;77.10;;;;;;5036792;27;89170;-69
2022/07/09 12:18:19;;;;;;;4.70;1.67;;;25.30;76.60;;;;;;5035938;28;91262;-70
2022/07/09 12:20:46;;;;;;;5.60;2.30;;;25.30;75.70;;;;;;5036995;27;88058;-69
2022/07/09 12:23:13;;;;;;;5.43;1.80;;;25.50;76.00;;;;;;5037444;27;87985;-69
2022/07/09 12:25:41;;;;;;;3.13;2.13;;;25.40;75.20;;;;;;5037206;27;88627;-69
2022/07/09 12:28:08;;;;;;;5.63;2.55;;;25.40;74.30;;;;;;5036043;28;88834;-69
2022/07/09 12:30:34;;;;;;;6.95;2.10;;;25.40;73.30;;;;;;5035238;28;91404;-69
2022/07/09 12:33:01;;;;;;;6.10;1.67;;;25.50;71.50;;;;;;5036156;28;88637;-69
2022/07/09 12:35:28;;;;;;;4.85;1.65;;;25.70;71.30;;;;;;5036272;28;88100;-69
2022/07/09 12:37:58;;;;;;;3.17;1.75;;;25.70;68.50;;;;;;5036792;27;88291;-69
2022/07/09 12:40:25;;;;;;;4.43;1.63;;;25.50;66.90;;;;;;5035722;28;89621;-69
2022/07/09 12:42:52;;;;;;;3.72;1.48;;;25.60;68.10;;;;;;5037366;27;91844;-69
2022/07/09 12:45:19;;;;;;;5.70;1.92;;;25.60;67.40;;;;;;5039013;27;89354;-70
2022/07/09 12:47:47;;;;;;;4.07;1.38;;;25.50;67.30;;;;;;5039035;27;88384;-69
2022/07/09 12:50:14;;;;;;;4.32;2.55;;;25.40;67.30;;;;;;5040559;27;88840;-69